Dades de l'estació automàtica Vallirana
Resum diari
21:30 TU| Temperatura mitjana | 16.2 °C | |
|---|---|---|
| Temperatura màxima | 23.0 °C | 9:48 TU |
| Temperatura mínima | 11.6 °C | 21:50 TU |
| Humitat relativa mitjana | 83% | |
| Precipitació acumulada | 4.0 mm | |
| Ratxa màxima del vent (10 m) | 33.1 km/h - 164º | 13:19 TU |
| Pressió atmosfèrica mitjana | 1012.2 hPa | |
| Irradiació solar global | 14.0 MJ/m2 | |
El tram horari està expressat en Temps Universal (TU). Cal sumar una hora en horari d'hivern i dues en horari d'estiu per passar a l'hora oficial.
Vallirana
| Municipi | Vallirana |
|---|---|
| Comarca | Baix Llobregat |
| Altitud | 255 m |
| Data alta | 28.10.1995 |
| Estat actual | Operativa |
| Període TU |
TM °C |
TX °C |
TN °C |
HRM % |
PPT mm |
VVM (10 m) km/h |
DVM (10 m) graus |
VVX (10 m) km/h |
PM hPa |
RS W/m2 |
|---|---|---|---|---|---|---|---|---|---|---|
| 00:00 - 00:30 | 13.6 | 13.7 | 13.5 | 97 | 0.0 | 1.1 | 129 | 3.6 | 1014.4 | 0 |
| 00:30 - 01:00 | 13.6 | 13.7 | 13.6 | 97 | 0.0 | 1.1 | 147 | 3.6 | 1014.2 | 0 |
| 01:00 - 01:30 | 13.7 | 13.7 | 13.6 | 97 | 0.0 | 1.1 | 156 | 2.9 | 1014.0 | 0 |
| 01:30 - 02:00 | 13.7 | 13.8 | 13.6 | 97 | 0.0 | 1.8 | 269 | 5.8 | 1013.8 | 0 |
| 02:00 - 02:30 | 13.7 | 13.7 | 13.6 | 97 | 0.0 | 2.5 | 272 | 5.8 | 1013.6 | 0 |
| 02:30 - 03:00 | 13.7 | 13.7 | 13.7 | 96 | 0.0 | 1.8 | 226 | 4.7 | 1013.6 | 0 |
| 03:00 - 03:30 | 13.7 | 13.8 | 13.6 | 96 | 0.0 | 1.4 | 194 | 4.7 | 1013.5 | 0 |
| 03:30 - 04:00 | 13.7 | 13.8 | 13.5 | 96 | 0.0 | 3.6 | 279 | 8.3 | 1013.5 | 0 |
| 04:00 - 04:30 | 13.6 | 13.7 | 13.5 | 96 | 0.0 | 4.3 | 287 | 7.6 | 1013.4 | 0 |
| 04:30 - 05:00 | 13.7 | 13.7 | 13.6 | 95 | 0.0 | 2.9 | 255 | 6.1 | 1013.3 | 2 |
| 05:00 - 05:30 | 13.6 | 13.7 | 13.5 | 95 | 0.0 | 2.9 | 222 | 7.9 | 1013.3 | 29 |
| 05:30 - 06:00 | 14.1 | 14.7 | 13.7 | 95 | 0.0 | 2.2 | 211 | 6.5 | 1013.0 | 110 |
| 06:00 - 06:30 | 15.5 | 16.4 | 14.8 | 89 | 0.0 | 1.8 | 141 | 4.7 | 1013.0 | 196 |
| 06:30 - 07:00 | 16.4 | 16.8 | 16.0 | 82 | 0.0 | 1.8 | 115 | 4.7 | 1013.0 | 285 |
| 07:00 - 07:30 | 17.7 | 18.3 | 16.4 | 77 | 0.0 | 1.1 | 105 | 6.8 | 1012.7 | 418 |
| 07:30 - 08:00 | 18.3 | 18.9 | 17.6 | 72 | 0.0 | 2.2 | 70 | 8.6 | 1012.5 | 444 |
| 08:00 - 08:30 | 18.6 | 19.4 | 18.0 | 71 | 0.0 | 2.9 | 118 | 6.5 | 1012.3 | 339 |
| 08:30 - 09:00 | 19.4 | 19.7 | 18.9 | 68 | 0.0 | 1.4 | 112 | 5.4 | 1012.1 | 362 |
| 09:00 - 09:30 | 20.2 | 21.5 | 18.8 | 65 | 0.0 | 2.5 | 122 | 7.2 | 1011.9 | 645 |
| 09:30 - 10:00 | 22.2 | 23.0 | 20.6 | 58 | 0.0 | 6.5 | 134 | 19.4 | 1011.5 | 729 |
| 10:00 - 10:30 | 20.1 | 21.1 | 19.5 | 68 | 0.0 | 11.5 | 148 | 19.8 | 1011.8 | 443 |
| 10:30 - 11:00 | 19.3 | 19.5 | 19.0 | 72 | 0.0 | 10.1 | 147 | 22.3 | 1011.6 | 303 |
| 11:00 - 11:30 | 19.4 | 20.3 | 18.8 | 72 | 0.0 | 4.7 | 137 | 11.9 | 1011.4 | 245 |
| 11:30 - 12:00 | 18.8 | 20.1 | 17.9 | 77 | 0.0 | 12.6 | 138 | 25.6 | 1011.4 | 335 |
| 12:00 - 12:30 | 18.7 | 19.2 | 18.1 | 74 | 0.0 | 16.2 | 166 | 25.9 | 1011.2 | 454 |
| 12:30 - 13:00 | 18.4 | 18.9 | 17.5 | 75 | 0.0 | 11.5 | 158 | 21.6 | 1011.2 | 404 |
| 13:00 - 13:30 | 17.4 | 17.9 | 17.0 | 74 | 0.0 | 11.9 | 168 | 33.1 | 1011.6 | 216 |
| 13:30 - 14:00 | 17.1 | 17.2 | 16.8 | 73 | 0.0 | 4.7 | 202 | 21.6 | 1011.6 | 136 |
| 14:00 - 14:30 | 17.2 | 17.4 | 17.0 | 71 | 0.0 | 3.6 | 183 | 11.9 | 1011.6 | 135 |
| 14:30 - 15:00 | 16.7 | 17.4 | 16.2 | 78 | 0.2 | 2.5 | 259 | 6.8 | 1011.3 | 166 |
| 15:00 - 15:30 | 17.0 | 17.7 | 16.4 | 78 | 0.0 | 2.2 | 261 | 8.6 | 1011.1 | 211 |
| 15:30 - 16:00 | 18.3 | 18.9 | 17.7 | 70 | 0.0 | 3.2 | 128 | 9.4 | 1010.7 | 537 |
| 16:00 - 16:30 | 18.5 | 19.0 | 17.9 | 70 | 0.0 | 6.1 | 121 | 14.4 | 1010.5 | 358 |
| 16:30 - 17:00 | 17.7 | 17.9 | 17.5 | 73 | 0.0 | 4.7 | 96 | 11.5 | 1010.5 | 153 |
| 17:00 - 17:30 | 17.3 | 17.9 | 16.7 | 76 | 0.0 | 2.5 | 49 | 10.8 | 1010.4 | 82 |
| 17:30 - 18:00 | 16.5 | 16.7 | 16.4 | 81 | 0.0 | 2.5 | 57 | 7.9 | 1010.4 | 57 |
| 18:00 - 18:30 | 16.2 | 16.6 | 15.9 | 83 | 0.0 | 1.8 | 302 | 18.0 | 1010.7 | 15 |
| 18:30 - 19:00 | 16.1 | 16.2 | 15.9 | 82 | 0.0 | 7.9 | 277 | 20.5 | 1011.0 | 2 |
| 19:00 - 19:30 | 15.7 | 15.8 | 15.6 | 85 | 0.0 | 6.8 | 271 | 20.9 | 1011.5 | 0 |
| 19:30 - 20:00 | 14.9 | 15.9 | 13.3 | 90 | 3.6 | 8.6 | 302 | 23.8 | 1012.2 | 0 |
| 20:00 - 20:30 | 12.9 | 13.3 | 12.4 | 98 | 0.2 | 4.7 | 332 | 17.6 | 1012.3 | 0 |
| 20:30 - 21:00 | 12.3 | 12.5 | 12.1 | 98 | 0.0 | 2.9 | 325 | 13.0 | 1012.4 | 0 |
| 21:00 - 21:30 | 12.2 | 12.4 | 12.0 | 98 | 0.0 | 4.0 | 214 | 9.0 | 1012.4 | 0 |
| 21:30 - 22:00 | 11.7 | 12.0 | 11.6 | 98 | 0.0 | 6.1 | 277 | 11.9 | 1012.1 | 0 |
Les dades en taronja només han passat un control de qualitat automàtic. Resta pendent la seva validació definitiva.